Time;durP1;ratioP1;P1;durP2;ratioP2;P2;SDS_P1;SDS_P2;PMS_P1;PMS_P2;Temp;Humidity;BMP_temperature;BMP_pressure;BME280_temperature;BME280_humidity;BME280_pressure;Samples;Min_cycle;Max_cycle;Signal;HPM_P1;HPM_P2
2022/06/21 00:00:12;;;;;;;5.15;4.75;;;;;;;;;;6096618;23;20485;-84
2022/06/21 00:02:38;;;;;;;5.97;4.75;;;;;;;;;;6096325;23;20002;-83
2022/06/21 00:05:04;;;;;;;7.45;5.28;;;;;;;;;;6071211;23;20029;-84
2022/06/21 00:07:30;;;;;;;5.90;4.47;;;;;;;;;;6096418;23;19998;-83
2022/06/21 00:09:59;;;;;;;6.13;5.40;;;;;;;;;;6096403;23;20002;-84
2022/06/21 00:12:25;;;;;;;5.28;4.28;;;;;;;;;;6070970;23;20081;-84
2022/06/21 00:14:52;;;;;;;5.53;4.65;;;;;;;;;;6096282;23;20006;-83
2022/06/21 00:17:19;;;;;;;6.07;4.63;;;;;;;;;;6096215;23;20019;-84
2022/06/21 00:19:45;;;;;;;5.57;4.50;;;;;;;;;;6070846;23;20014;-84
2022/06/21 00:22:13;;;;;;;5.05;4.65;;;;;;;;;;6096504;23;20010;-83
2022/06/21 00:24:39;;;;;;;6.35;4.68;;;;;;;;;;6096268;23;20006;-84
2022/06/21 00:27:11;;;;;;;5.18;4.65;;;;;;;;;;6096511;23;20003;-84
2022/06/21 00:29:37;;;;;;;5.88;5.03;;;;;;;;;;6096237;23;20330;-83
2022/06/21 00:32:03;;;;;;;5.43;4.22;;;;;;;;;;6096508;23;20009;-84
2022/06/21 00:34:29;;;;;;;5.32;4.82;;;;;;;;;;6096301;23;20002;-83
2022/06/21 00:36:59;;;;;;;7.90;7.00;;;;;;;;;;6070984;23;20014;-83
2022/06/21 00:39:30;;;;;;;4.95;4.47;;;;;;;;;;6096427;23;20006;-84
2022/06/21 00:42:00;;;;;;;5.70;5.10;;;;;;;;;;6096404;23;20003;-83
2022/06/21 00:44:44;;;;;;;6.03;5.25;;;;;;;;;;6096191;23;20022;-83
2022/06/21 00:47:16;;;;;;;5.95;5.40;;;;;;;;;;6096304;23;20002;-83
2022/06/21 00:49:46;;;;;;;6.57;5.07;;;;;;;;;;6096347;23;20006;-83
2022/06/21 00:52:18;;;;;;;5.65;5.00;;;;;;;;;;6070642;23;20015;-83
2022/06/21 00:54:59;;;;;;;6.50;5.90;;;;;;;;;;6096349;23;20010;-82
2022/06/21 00:57:30;;;;;;;4.60;4.18;;;;;;;;;;6096297;23;20335;-83
2022/06/21 00:59:58;;;;;;;4.88;4.47;;;;;;;;;;6096043;23;20022;-83
2022/06/21 01:02:33;;;;;;;5.25;4.50;;;;;;;;;;6096835;23;20014;-83
2022/06/21 01:05:01;;;;;;;4.38;4.00;;;;;;;;;;6096981;23;20009;-83
2022/06/21 01:07:27;;;;;;;6.38;4.50;;;;;;;;;;6072715;23;20036;-83
2022/06/21 01:10:05;;;;;;;16.05;13.02;;;;;;;;;;6098055;23;20449;-83
2022/06/21 01:12:35;;;;;;;8.02;7.32;;;;;;;;;;6098101;23;20334;-83
2022/06/21 01:15:02;;;;;;;9.57;8.68;;;;;;;;;;6098345;23;20867;-83
2022/06/21 01:17:29;;;;;;;6.30;4.75;;;;;;;;;;6067447;23;20459;-83
2022/06/21 01:20:12;;;;;;;4.72;4.20;;;;;;;;;;6069279;23;20002;-84
2022/06/21 01:22:41;;;;;;;5.47;4.22;;;;;;;;;;6069166;23;20466;-83
2022/06/21 01:25:26;;;;;;;5.22;4.47;;;;;;;;;;6069332;23;20022;-83
2022/06/21 01:27:55;;;;;;;4.72;4.15;;;;;;;;;;6069234;23;20038;-83
2022/06/21 01:30:26;;;;;;;4.43;4.03;;;;;;;;;;6069238;23;20003;-83
2022/06/21 01:32:52;;;;;;;3.55;3.13;;;;;;;;;;6069204;23;20037;-83
2022/06/21 01:35:31;;;;;;;4.65;4.15;;;;;;;;;;6067748;23;19999;-83
2022/06/21 01:37:58;;;;;;;4.13;3.72;;;;;;;;;;6069243;23;20003;-83
2022/06/21 01:40:26;;;;;;;5.55;4.13;;;;;;;;;;6069274;23;20007;-83
2022/06/21 01:43:11;;;;;;;4.97;4.47;;;;;;;;;;6067455;23;20003;-83
2022/06/21 01:45:55;;;;;;;5.00;4.38;;;;;;;;;;6068894;23;20014;-83
2022/06/21 01:48:21;;;;;;;;;;;;;;;;;;6069401;23;20062;-83
2022/06/21 01:50:48;;;;;;;4.95;4.00;;;;;;;;;;6069069;23;19902;-83
2022/06/21 01:53:19;;;;;;;5.25;4.03;;;;;;;;;;6068974;23;20011;-83
2022/06/21 01:55:48;;;;;;;7.43;4.30;;;;;;;;;;6068905;23;20003;-83
2022/06/21 01:58:17;;;;;;;5.53;4.43;;;;;;;;;;6068905;23;19995;-83
2022/06/21 02:00:45;;;;;;;4.47;4.13;;;;;;;;;;6069357;23;20003;-83
2022/06/21 02:03:15;;;;;;;4.38;3.97;;;;;;;;;;6068881;23;20070;-83
2022/06/21 02:05:47;;;;;;;4.82;4.10;;;;;;;;;;6068992;23;20380;-83
2022/06/21 02:08:16;;;;;;;3.97;3.60;;;;;;;;;;6068735;23;20394;-83
2022/06/21 02:10:53;;;;;;;4.10;3.72;;;;;;;;;;6068862;23;20018;-83
2022/06/21 02:13:39;;;;;;;4.20;3.80;;;;;;;;;;6068738;23;19999;-84
2022/06/21 02:16:11;;;;;;;4.25;3.70;;;;;;;;;;6068846;23;20343;-83
2022/06/21 02:18:39;;;;;;;5.18;4.07;;;;;;;;;;6070699;23;20383;-83
2022/06/21 02:21:07;;;;;;;4.15;3.70;;;;;;;;;;6070450;23;20053;-84
2022/06/21 02:23:33;;;;;;;4.95;4.32;;;;;;;;;;6095979;23;19998;-84
2022/06/21 02:26:00;;;;;;;4.25;3.75;;;;;;;;;;6070673;23;20037;-84
2022/06/21 02:28:28;;;;;;;5.00;4.00;;;;;;;;;;6096115;23;20007;-83
2022/06/21 02:31:03;;;;;;;4.57;4.13;;;;;;;;;;6095759;23;20026;-84
2022/06/21 02:33:33;;;;;;;5.00;3.83;;;;;;;;;;6095739;23;20007;-84
2022/06/21 02:36:04;;;;;;;4.68;4.18;;;;;;;;;;6095966;23;20006;-84
2022/06/21 02:38:33;;;;;;;4.15;3.80;;;;;;;;;;6095742;23;20002;-83
2022/06/21 02:41:04;;;;;;;4.80;4.40;;;;;;;;;;6095915;23;19998;-84
2022/06/21 02:43:37;;;;;;;4.40;3.95;;;;;;;;;;6095577;23;20445;-84
2022/06/21 02:46:22;;;;;;;4.47;4.07;;;;;;;;;;6095758;23;20029;-83
2022/06/21 02:48:50;;;;;;;4.43;3.95;;;;;;;;;;6095829;23;20030;-83
2022/06/21 02:51:19;;;;;;;5.07;4.43;;;;;;;;;;6095530;23;20006;-84
2022/06/21 02:54:15;;;;;;;5.43;4.35;;;;;;;;;;6095910;23;20002;-83
2022/06/21 02:56:44;;;;;;;4.80;4.40;;;;;;;;;;6065691;23;20011;-83
2022/06/21 02:59:15;;;;;;;4.60;4.20;;;;;;;;;;6095935;23;20034;-83
2022/06/21 03:01:50;;;;;;;4.53;4.13;;;;;;;;;;6095627;23;20049;-83
2022/06/21 03:04:38;;;;;;;5.07;4.68;;;;;;;;;;6095846;23;19995;-83
2022/06/21 03:07:04;;;;;;;8.55;5.40;;;;;;;;;;6095693;23;20439;-84
2022/06/21 03:09:30;;;;;;;5.35;4.85;;;;;;;;;;6095729;23;20006;-83
2022/06/21 03:12:00;;;;;;;5.50;4.30;;;;;;;;;;6095835;23;20077;-84
2022/06/21 03:14:27;;;;;;;7.05;4.97;;;;;;;;;;6070047;23;20339;-84
2022/06/21 03:16:55;;;;;;;7.45;4.65;;;;;;;;;;6014145;23;1338023;-83
2022/06/21 03:19:26;;;;;;;4.35;3.83;;;;;;;;;;6096738;23;20011;-83
2022/06/21 03:21:52;;;;;;;6.28;5.68;;;;;;;;;;6097023;23;20003;-84
2022/06/21 03:24:23;;;;;;;5.35;4.85;;;;;;;;;;6096743;23;20009;-83
2022/06/21 03:27:06;;;;;;;5.20;4.68;;;;;;;;;;6096695;23;19999;-84
2022/06/21 03:29:35;;;;;;;5.95;5.30;;;;;;;;;;6071417;23;20007;-84
2022/06/21 03:32:02;;;;;;;7.00;5.55;;;;;;;;;;6096659;23;20003;-83
2022/06/21 03:34:29;;;;;;;5.50;4.60;;;;;;;;;;6096880;23;20049;-83
2022/06/21 03:37:00;;;;;;;5.47;4.93;;;;;;;;;;6096540;23;20034;-84
2022/06/21 03:42:15;;;;;;;7.10;5.53;;;;;;;;;;6096805;23;20013;-84
2022/06/21 03:45:01;;;;;;;6.72;5.18;;;;;;;;;;6096481;23;20005;-83
2022/06/21 03:47:38;;;;;;;7.50;4.68;;;;;;;;;;6096210;23;20007;-83
2022/06/21 03:50:07;;;;;;;5.72;4.93;;;;;;;;;;6096464;23;20003;-83
2022/06/21 03:52:46;;;;;;;5.32;4.80;;;;;;;;;;6096762;23;20006;-83
2022/06/21 03:55:21;;;;;;;5.45;4.95;;;;;;;;;;6096516;23;20006;-84
2022/06/21 03:57:50;;;;;;;5.15;4.60;;;;;;;;;;6096543;23;20308;-84
2022/06/21 04:00:17;;;;;;;4.93;4.47;;;;;;;;;;6071087;23;20014;-82
2022/06/21 04:02:55;;;;;;;7.45;5.72;;;;;;;;;;6096166;23;20339;-83
2022/06/21 04:05:27;;;;;;;6.50;5.43;;;;;;;;;;6071008;23;20006;-83
2022/06/21 04:08:00;;;;;;;5.75;4.85;;;;;;;;;;6096223;23;20002;-83
2022/06/21 04:10:26;;;;;;;4.70;4.30;;;;;;;;;;6096433;23;20002;-81
2022/06/21 04:12:54;;;;;;;5.18;4.78;;;;;;;;;;6096486;23;20002;-83
2022/06/21 04:15:20;;;;;;;7.03;4.70;;;;;;;;;;6096274;23;19998;-86
2022/06/21 04:17:57;;;;;;;5.22;4.72;;;;;;;;;;6070482;23;20014;-84
2022/06/21 04:20:26;;;;;;;8.77;5.65;;;;;;;;;;6096188;23;20014;-86
2022/06/21 04:22:53;;;;;;;8.20;7.07;;;;;;;;;;6096495;23;20009;-85
2022/06/21 04:25:43;;;;;;;8.02;5.78;;;;;;;;;;6096310;23;20030;-84
2022/06/21 04:28:13;;;;;;;7.32;6.45;;;;;;;;;;6078875;23;20010;-85
2022/06/21 04:30:42;;;;;;;7.82;6.13;;;;;;;;;;6096392;23;20334;-83
2022/06/21 04:33:14;;;;;;;7.68;5.82;;;;;;;;;;6096319;23;20006;-87
2022/06/21 04:35:44;;;;;;;7.38;6.25;;;;;;;;;;6096508;23;20423;-84
2022/06/21 04:38:14;;;;;;;7.28;6.57;;;;;;;;;;6096268;23;20010;-87
2022/06/21 04:40:59;;;;;;;7.40;6.30;;;;;;;;;;6096342;23;20384;-84
2022/06/21 04:43:25;;;;;;;;;;;;;;;;;;6096866;23;20006;-84
2022/06/21 04:46:10;;;;;;;9.25;6.28;;;;;;;;;;6070515;23;19982;-86
2022/06/21 04:48:43;;;;;;;8.73;6.50;;;;;;;;;;6095927;23;20006;-83
2022/06/21 04:51:13;;;;;;;15.85;11.52;;;;;;;;;;6096095;23;20006;-85
2022/06/21 04:53:59;;;;;;;12.60;8.70;;;;;;;;;;6096238;23;20003;-82
2022/06/21 04:56:44;;;;;;;6.88;5.32;;;;;;;;;;6096239;23;20422;-82
2022/06/21 04:59:17;;;;;;;6.85;5.70;;;;;;;;;;6096541;23;20002;-83
2022/06/21 05:01:43;;;;;;;7.90;5.38;;;;;;;;;;6096191;23;20015;-83
2022/06/21 05:04:20;;;;;;;8.30;5.63;;;;;;;;;;6070487;23;20006;-84
2022/06/21 05:06:46;;;;;;;5.57;4.78;;;;;;;;;;6095654;23;20030;-83
2022/06/21 05:09:14;;;;;;;8.50;5.32;;;;;;;;;;6095608;23;20057;-85
2022/06/21 05:11:41;;;;;;;5.80;5.00;;;;;;;;;;6095810;23;20077;-81
2022/06/21 05:14:16;;;;;;;7.50;6.13;;;;;;;;;;6096125;23;20011;-82
2022/06/21 05:16:42;;;;;;;6.38;5.70;;;;;;;;;;6095726;23;20046;-89
2022/06/21 05:19:14;;;;;;;6.95;5.00;;;;;;;;;;6096367;23;20063;-82
2022/06/21 05:21:43;;;;;;;8.15;5.28;;;;;;;;;;6095770;23;20006;-84
2022/06/21 05:24:10;;;;;;;6.93;5.22;;;;;;;;;;6095767;23;20010;-84
2022/06/21 05:26:49;;;;;;;6.32;4.82;;;;;;;;;;6095308;23;20454;-85
2022/06/21 05:29:20;;;;;;;7.07;5.35;;;;;;;;;;6066421;23;20476;-86
2022/06/21 05:31:48;;;;;;;38.70;30.25;;;;;;;;;;6092748;23;20073;-84
2022/06/21 05:34:14;;;;;;;8.73;7.40;;;;;;;;;;6092036;23;20549;-82
2022/06/21 05:36:50;;;;;;;6.75;4.40;;;;;;;;;;6093047;23;20007;-83
2022/06/21 05:39:22;;;;;;;6.22;4.57;;;;;;;;;;6068395;23;20453;-82
2022/06/21 05:41:49;;;;;;;6.90;4.78;;;;;;;;;;6093697;23;20041;-85
2022/06/21 05:44:28;;;;;;;5.95;4.82;;;;;;;;;;6068162;23;20007;-82
2022/06/21 05:46:56;;;;;;;11.27;5.75;;;;;;;;;;6068548;23;20431;-82
2022/06/21 05:49:27;;;;;;;6.35;4.53;;;;;;;;;;6093791;23;20077;-85
2022/06/21 05:51:56;;;;;;;6.30;5.07;;;;;;;;;;6095141;23;20107;-83
2022/06/21 05:54:26;;;;;;;8.60;5.28;;;;;;;;;;6095036;23;20017;-82
2022/06/21 05:56:52;;;;;;;6.70;4.93;;;;;;;;;;6096155;23;20003;-85
2022/06/21 05:59:19;;;;;;;7.05;5.03;;;;;;;;;;6070893;23;20010;-84
2022/06/21 06:02:04;;;;;;;7.97;5.03;;;;;;;;;;6096404;23;20006;-84
2022/06/21 06:04:52;;;;;;;8.95;6.32;;;;;;;;;;6096108;23;19995;-85
2022/06/21 06:07:36;;;;;;;28.00;13.65;;;;;;;;;;6069905;23;20014;-84
2022/06/21 06:10:04;;;;;;;26.80;12.93;;;;;;;;;;6095891;23;20064;-87
2022/06/21 06:12:37;;;;;;;11.05;6.65;;;;;;;;;;6070658;23;20026;-86
2022/06/21 06:15:07;;;;;;;13.10;7.60;;;;;;;;;;6069349;23;20085;-85
2022/06/21 06:17:51;;;;;;;50.10;21.60;;;;;;;;;;6094949;23;20018;-85
2022/06/21 06:20:23;;;;;;;34.30;25.35;;;;;;;;;;6069675;23;20556;-84
2022/06/21 06:23:02;;;;;;;47.38;23.77;;;;;;;;;;6095942;23;20375;-85
2022/06/21 06:25:32;;;;;;;17.92;9.88;;;;;;;;;;6095752;23;20335;-82
2022/06/21 06:28:17;;;;;;;11.45;7.50;;;;;;;;;;6096091;23;20007;-81
2022/06/21 06:31:02;;;;;;;13.77;8.13;;;;;;;;;;6095666;23;20006;-81
2022/06/21 06:33:55;;;;;;;13.77;8.30;;;;;;;;;;6095343;23;20006;-82
2022/06/21 06:36:27;;;;;;;13.10;8.48;;;;;;;;;;6089192;23;20065;-82
2022/06/21 06:38:53;;;;;;;123.13;55.50;;;;;;;;;;6095651;23;20451;-85
2022/06/21 06:41:38;;;;;;;82.00;38.28;;;;;;;;;;6095519;23;19998;-83
2022/06/21 06:44:07;;;;;;;151.55;65.63;;;;;;;;;;6070259;23;20046;-85
2022/06/21 06:46:36;;;;;;;56.35;26.17;;;;;;;;;;6068901;23;20086;-87
2022/06/21 06:49:08;;;;;;;30.35;16.08;;;;;;;;;;6069866;23;20441;-85
2022/06/21 06:51:41;;;;;;;18.48;10.35;;;;;;;;;;6095742;23;20013;-86
2022/06/21 06:54:13;;;;;;;13.15;7.43;;;;;;;;;;6069997;23;20018;-82
2022/06/21 06:56:59;;;;;;;16.35;13.65;;;;;;;;;;6069259;23;20450;-87
2022/06/21 06:59:25;;;;;;;17.92;13.93;;;;;;;;;;6094393;23;20050;-85
2022/06/21 07:01:57;;;;;;;7.10;4.53;;;;;;;;;;6094925;23;20465;-85
2022/06/21 07:04:24;;;;;;;16.45;9.43;;;;;;;;;;6068584;23;20054;-83
2022/06/21 07:07:28;;;;;;;97.43;41.53;;;;;;;;;;6095467;23;20006;-84
2022/06/21 07:10:09;;;;;;;77.50;31.10;;;;;;;;;;6068444;23;20109;-86
2022/06/21 07:12:35;;;;;;;53.50;24.00;;;;;;;;;;6070518;23;20014;-86
2022/06/21 07:15:10;;;;;;;16.40;8.10;;;;;;;;;;6094440;23;20017;-86
2022/06/21 07:17:41;;;;;;;7.38;5.05;;;;;;;;;;6094790;23;20018;-85
2022/06/21 07:20:26;;;;;;;13.20;7.35;;;;;;;;;;6069166;23;20026;-86
2022/06/21 07:22:55;;;;;;;11.50;7.20;;;;;;;;;;6070247;23;20406;-86
2022/06/21 07:25:22;;;;;;;9.85;6.13;;;;;;;;;;6095081;23;20012;-83
2022/06/21 07:27:51;;;;;;;27.67;11.95;;;;;;;;;;6095174;23;20004;-83
2022/06/21 07:33:05;;;;;;;4.70;3.92;;;;;;;;;;6079858;23;20007;-77
2022/06/21 07:35:36;;;;;;;4.15;3.78;;;;;;;;;;6094978;23;20029;-82
2022/06/21 07:38:05;;;;;;;4.53;3.92;;;;;;;;;;6094822;23;20065;-83
2022/06/21 07:40:35;;;;;;;4.32;3.75;;;;;;;;;;6093543;23;20086;-81
2022/06/21 07:43:07;;;;;;;4.43;3.70;;;;;;;;;;6069070;23;20053;-81
2022/06/21 07:45:38;;;;;;;5.25;4.75;;;;;;;;;;6095311;23;20486;-82
2022/06/21 07:48:07;;;;;;;7.43;4.70;;;;;;;;;;6094622;23;20054;-83
2022/06/21 07:50:45;;;;;;;13.13;8.18;;;;;;;;;;6094503;23;20002;-85
2022/06/21 07:53:11;;;;;;;58.25;26.05;;;;;;;;;;6094257;23;20006;-83
2022/06/21 07:55:51;;;;;;;47.22;23.13;;;;;;;;;;6095315;23;20002;-86
2022/06/21 07:58:33;;;;;;;42.47;20.17;;;;;;;;;;6095482;23;20437;-87
2022/06/21 08:06:50;;;;;;;40.50;17.25;;;;;;;;;;6094955;23;20022;-87
2022/06/21 08:09:25;;;;;;;37.55;16.55;;;;;;;;;;6095156;23;20002;-85
2022/06/21 08:11:52;;;;;;;13.18;7.63;;;;;;;;;;6066886;23;20102;-88
2022/06/21 08:14:18;;;;;;;20.23;11.43;;;;;;;;;;6066541;23;20097;-85
2022/06/21 08:16:54;;;;;;;22.42;11.75;;;;;;;;;;6092646;23;20049;-88
2022/06/21 08:19:42;;;;;;;9.70;6.70;;;;;;;;;;6094590;23;20002;-86
2022/06/21 08:22:11;;;;;;;13.77;8.32;;;;;;;;;;6094542;23;20006;-84
2022/06/21 08:24:40;;;;;;;13.23;10.05;;;;;;;;;;6069133;23;20522;-81
2022/06/21 08:27:25;;;;;;;13.05;8.27;;;;;;;;;;6095151;23;20002;-83
2022/06/21 08:29:55;;;;;;;7.45;4.95;;;;;;;;;;6094410;23;20004;-81
2022/06/21 08:32:41;;;;;;;10.13;6.05;;;;;;;;;;6068938;23;20327;-85
2022/06/21 08:35:21;;;;;;;9.65;6.93;;;;;;;;;;6069597;23;20450;-84
2022/06/21 08:37:50;;;;;;;10.25;7.05;;;;;;;;;;6066843;23;20036;-84
2022/06/21 08:40:35;;;;;;;6.05;5.45;;;;;;;;;;6094540;23;20434;-81
2022/06/21 08:43:04;;;;;;;7.30;6.38;;;;;;;;;;6095270;23;20002;-84
2022/06/21 08:45:42;;;;;;;25.60;23.05;;;;;;;;;;6094858;23;20458;-87
2022/06/21 08:48:26;;;;;;;9.55;8.63;;;;;;;;;;6095041;23;20007;-83
2022/06/21 08:50:52;;;;;;;7.05;5.68;;;;;;;;;;6068640;23;20060;-84
2022/06/21 08:53:31;;;;;;;6.50;5.50;;;;;;;;;;6069304;23;20013;-84
2022/06/21 08:56:00;;;;;;;6.30;5.80;;;;;;;;;;6092569;23;20010;-82
2022/06/21 08:58:31;;;;;;;6.47;5.95;;;;;;;;;;6094069;23;20327;-80
2022/06/21 09:01:18;;;;;;;8.77;6.10;;;;;;;;;;6094601;23;20002;-80
2022/06/21 09:03:59;;;;;;;5.88;5.28;;;;;;;;;;6070477;23;20391;-80
2022/06/21 09:06:44;;;;;;;15.73;14.23;;;;;;;;;;6092396;23;20081;-83
2022/06/21 09:09:28;;;;;;;9.50;8.43;;;;;;;;;;6093870;23;20053;-85
2022/06/21 09:12:01;;;;;;;7.70;7.00;;;;;;;;;;6068774;23;20026;-81
2022/06/21 09:14:46;;;;;;;6.38;5.88;;;;;;;;;;6094208;23;20330;-80
2022/06/21 09:17:28;;;;;;;8.10;5.72;;;;;;;;;;6092644;23;20018;-85
2022/06/21 09:19:54;;;;;;;30.65;15.70;;;;;;;;;;6093721;23;20013;-81
2022/06/21 09:22:39;;;;;;;40.42;20.55;;;;;;;;;;6093559;23;20058;-85
2022/06/21 09:25:05;;;;;;;37.10;18.58;;;;;;;;;;6094433;23;20018;-82
2022/06/21 09:27:50;;;;;;;23.60;12.77;;;;;;;;;;6096608;23;20006;-85
2022/06/21 09:30:24;;;;;;;24.33;12.20;;;;;;;;;;6096420;23;20069;-81
2022/06/21 09:32:58;;;;;;;76.55;33.25;;;;;;;;;;6095375;23;20414;-85
2022/06/21 09:35:37;;;;;;;16.40;9.90;;;;;;;;;;6070805;23;20007;-84
2022/06/21 09:38:06;;;;;;;21.20;11.10;;;;;;;;;;6070286;23;20081;-85
2022/06/21 09:40:44;;;;;;;19.25;10.93;;;;;;;;;;6095982;23;20003;-81
2022/06/21 09:43:21;;;;;;;12.27;6.97;;;;;;;;;;6070246;23;20093;-86
2022/06/21 09:46:06;;;;;;;14.02;9.40;;;;;;;;;;6071192;23;20474;-79
2022/06/21 09:48:38;;;;;;;12.73;7.47;;;;;;;;;;6070365;23;20014;-83
2022/06/21 09:51:26;;;;;;;7.22;5.50;;;;;;;;;;6071243;23;20110;-79
2022/06/21 09:54:11;;;;;;;6.85;5.60;;;;;;;;;;6096027;23;20335;-80
2022/06/21 09:56:42;;;;;;;10.27;5.60;;;;;;;;;;6096121;23;19999;-76
2022/06/21 09:59:12;;;;;;;6.85;5.90;;;;;;;;;;6096329;23;20005;-77
2022/06/21 10:01:47;;;;;;;6.93;6.00;;;;;;;;;;6093339;23;20435;-77
2022/06/21 10:04:16;;;;;;;8.40;6.38;;;;;;;;;;6094783;23;20007;-79
2022/06/21 10:07:07;;;;;;;8.80;6.13;;;;;;;;;;6095613;23;20036;-79
2022/06/21 10:09:50;;;;;;;7.68;5.70;;;;;;;;;;6095306;23;20002;-77
2022/06/21 10:12:16;;;;;;;6.63;5.82;;;;;;;;;;6095272;23;20006;-79
2022/06/21 10:15:00;;;;;;;10.50;6.05;;;;;;;;;;6094811;23;20057;-81
2022/06/21 10:17:26;;;;;;;10.25;6.03;;;;;;;;;;6094987;23;20018;-78
2022/06/21 10:20:13;;;;;;;7.78;6.15;;;;;;;;;;6095364;23;20002;-79
2022/06/21 10:22:48;;;;;;;13.48;8.55;;;;;;;;;;6095697;23;20017;-79
2022/06/21 10:25:21;;;;;;;8.60;6.28;;;;;;;;;;6094853;23;20013;-76
2022/06/21 10:27:58;;;;;;;9.80;6.10;;;;;;;;;;6096096;23;19998;-77
2022/06/21 10:30:43;;;;;;;7.85;6.60;;;;;;;;;;6095473;23;20006;-79
2022/06/21 10:33:27;;;;;;;7.47;6.32;;;;;;;;;;6096292;23;20050;-78
2022/06/21 10:36:12;;;;;;;8.80;6.90;;;;;;;;;;6094797;23;20005;-78
2022/06/21 10:38:41;;;;;;;6.55;5.72;;;;;;;;;;6070033;23;20037;-76
2022/06/21 10:41:26;;;;;;;8.45;6.13;;;;;;;;;;6094967;23;19998;-76
2022/06/21 10:44:11;;;;;;;9.15;6.07;;;;;;;;;;6095831;23;20347;-79
2022/06/21 10:46:52;;;;;;;7.68;6.57;;;;;;;;;;6068902;23;20003;-77
2022/06/21 10:49:21;;;;;;;10.95;6.50;;;;;;;;;;6093816;23;20061;-78
2022/06/21 10:51:53;;;;;;;6.43;5.75;;;;;;;;;;6095650;23;20003;-77
2022/06/21 10:54:38;;;;;;;9.07;5.85;;;;;;;;;;6095835;23;20006;-79
2022/06/21 10:57:10;;;;;;;10.85;6.72;;;;;;;;;;6095102;23;20041;-80
2022/06/21 11:02:42;;;;;;;9.30;6.43;;;;;;;;;;6095001;23;20033;-76
2022/06/21 11:05:08;;;;;;;8.15;6.28;;;;;;;;;;6095234;23;20003;-76
2022/06/21 11:07:58;;;;;;;8.73;7.00;;;;;;;;;;6095540;23;20013;-76
2022/06/21 11:10:28;;;;;;;10.88;7.72;;;;;;;;;;6076964;23;20014;-77
2022/06/21 11:13:03;;;;;;;14.13;7.38;;;;;;;;;;6095156;23;20326;-78
2022/06/21 11:15:29;;;;;;;11.82;6.78;;;;;;;;;;6093632;23;20105;-76
2022/06/21 11:18:02;;;;;;;9.07;7.68;;;;;;;;;;6095168;23;20048;-78
2022/06/21 11:20:29;;;;;;;8.60;7.43;;;;;;;;;;6095497;23;20009;-80
2022/06/21 11:23:13;;;;;;;8.35;6.68;;;;;;;;;;6093564;23;20021;-77
2022/06/21 11:25:46;;;;;;;10.35;7.30;;;;;;;;;;6067216;23;20606;-79
2022/06/21 11:28:18;;;;;;;10.52;7.10;;;;;;;;;;6092801;23;20030;-79
2022/06/21 11:30:57;;;;;;;9.15;6.85;;;;;;;;;;6093494;23;20006;-82
2022/06/21 11:33:30;;;;;;;11.60;8.07;;;;;;;;;;6094675;23;20105;-80
2022/06/21 11:35:56;;;;;;;10.10;6.93;;;;;;;;;;6094197;23;20010;-77
2022/06/21 11:38:40;;;;;;;12.70;7.72;;;;;;;;;;6095374;23;20046;-79
2022/06/21 11:44:23;;;;;;;11.80;9.38;;;;;;;;;;6094948;23;20378;-80
2022/06/21 11:46:57;;;;;;;9.73;7.78;;;;;;;;;;6092768;23;20002;-79
2022/06/21 11:49:47;;;;;;;9.70;6.75;;;;;;;;;;6096160;23;20029;-76
2022/06/21 11:52:32;;;;;;;11.85;7.65;;;;;;;;;;6070416;23;20007;-76
2022/06/21 11:55:17;;;;;;;10.10;7.07;;;;;;;;;;6095530;23;20382;-80
2022/06/21 11:57:52;;;;;;;11.15;7.90;;;;;;;;;;6094703;23;20084;-82
2022/06/21 12:00:27;;;;;;;10.32;7.18;;;;;;;;;;6095388;23;20334;-80
2022/06/21 12:03:02;;;;;;;11.85;7.60;;;;;;;;;;6095425;23;19999;-77
2022/06/21 12:05:37;;;;;;;11.30;7.75;;;;;;;;;;6071049;23;20061;-76
2022/06/21 12:08:12;;;;;;;11.40;9.13;;;;;;;;;;6095697;23;20331;-80
2022/06/21 12:10:57;;;;;;;13.15;7.60;;;;;;;;;;6094853;23;20002;-79
2022/06/21 12:13:35;;;;;;;11.93;7.53;;;;;;;;;;6096518;23;20077;-81
2022/06/21 12:16:20;;;;;;;8.02;7.25;;;;;;;;;;6095321;23;20007;-77
2022/06/21 12:18:50;;;;;;;9.25;6.72;;;;;;;;;;6095480;23;19999;-76
2022/06/21 12:21:20;;;;;;;10.55;7.13;;;;;;;;;;6096075;23;19999;-80
2022/06/21 12:24:06;;;;;;;7.15;6.40;;;;;;;;;;6095162;23;20347;-77
2022/06/21 12:26:34;;;;;;;9.30;6.88;;;;;;;;;;6095597;23;20141;-80
2022/06/21 12:29:03;;;;;;;8.70;5.85;;;;;;;;;;6095877;23;20439;-78
2022/06/21 12:31:34;;;;;;;7.70;6.57;;;;;;;;;;6095144;23;20077;-78
2022/06/21 12:34:05;;;;;;;7.97;6.22;;;;;;;;;;6095448;23;20054;-83
2022/06/21 12:36:49;;;;;;;8.02;6.13;;;;;;;;;;6095297;23;20006;-78
2022/06/21 12:39:28;;;;;;;7.82;6.13;;;;;;;;;;6095502;23;20006;-80
2022/06/21 12:41:54;;;;;;;6.38;5.53;;;;;;;;;;6095632;23;20003;-79
2022/06/21 12:44:32;;;;;;;7.20;5.60;;;;;;;;;;6095996;23;20038;-80
2022/06/21 12:47:19;;;;;;;8.38;5.53;;;;;;;;;;6095161;23;20010;-81
2022/06/21 12:50:04;;;;;;;9.00;6.28;;;;;;;;;;6095926;23;20378;-81
2022/06/21 12:52:57;;;;;;;7.38;6.18;;;;;;;;;;6070474;23;20430;-80
2022/06/21 12:55:29;;;;;;;7.72;5.70;;;;;;;;;;6041809;23;20006;-81
2022/06/21 12:58:16;;;;;;;7.70;5.20;;;;;;;;;;6095918;23;20102;-82
2022/06/21 13:00:45;;;;;;;8.10;5.68;;;;;;;;;;6096601;23;20040;-78
2022/06/21 13:03:17;;;;;;;8.30;5.55;;;;;;;;;;6097823;23;20357;-80
2022/06/21 13:06:02;;;;;;;10.88;7.07;;;;;;;;;;6097951;23;20073;-79
2022/06/21 13:08:51;;;;;;;6.88;5.97;;;;;;;;;;6097582;23;20005;-80
2022/06/21 13:11:36;;;;;;;8.48;6.47;;;;;;;;;;6079566;23;20423;-78
2022/06/21 13:14:12;;;;;;;8.38;5.55;;;;;;;;;;6097766;23;20021;-80
2022/06/21 13:16:57;;;;;;;7.05;5.57;;;;;;;;;;6097625;23;20018;-78
2022/06/21 13:19:42;;;;;;;6.72;5.93;;;;;;;;;;6097815;23;20013;-78
2022/06/21 13:22:19;;;;;;;7.43;5.93;;;;;;;;;;6097962;23;20013;-79
2022/06/21 13:24:45;;;;;;;6.90;5.93;;;;;;;;;;6097466;23;20007;-80
2022/06/21 13:27:17;;;;;;;10.40;6.70;;;;;;;;;;6097771;23;20006;-79
2022/06/21 13:30:02;;;;;;;7.60;5.63;;;;;;;;;;6097583;23;20437;-77
2022/06/21 13:32:31;;;;;;;8.60;5.13;;;;;;;;;;6097602;23;20003;-81
2022/06/21 13:35:07;;;;;;;7.93;5.95;;;;;;;;;;6096739;23;20030;-81
2022/06/21 13:37:37;;;;;;;8.05;6.47;;;;;;;;;;6097767;23;20030;-79
2022/06/21 13:40:20;;;;;;;7.38;5.90;;;;;;;;;;6097406;23;20063;-79
2022/06/21 13:43:05;;;;;;;6.32;5.72;;;;;;;;;;6097410;23;20002;-79
2022/06/21 13:45:52;;;;;;;7.00;6.10;;;;;;;;;;6097485;23;20003;-80
2022/06/21 13:48:24;;;;;;;5.82;5.15;;;;;;;;;;6097499;23;19999;-81
2022/06/21 13:51:00;;;;;;;7.28;6.05;;;;;;;;;;6098018;23;20002;-80
2022/06/21 13:53:45;;;;;;;8.25;5.95;;;;;;;;;;6097471;23;20009;-81
2022/06/21 13:56:29;;;;;;;8.25;5.13;;;;;;;;;;6097344;23;20334;-80
2022/06/21 13:58:59;;;;;;;6.28;5.55;;;;;;;;;;6097461;23;20003;-79
2022/06/21 14:01:25;;;;;;;8.05;6.25;;;;;;;;;;6097850;23;20003;-78
2022/06/21 14:04:02;;;;;;;8.18;6.03;;;;;;;;;;6097533;23;20006;-80
2022/06/21 14:06:46;;;;;;;7.20;5.53;;;;;;;;;;6071797;23;20014;-79
2022/06/21 14:09:21;;;;;;;7.05;5.93;;;;;;;;;;6097466;23;20010;-78
2022/06/21 14:12:01;;;;;;;6.50;5.10;;;;;;;;;;6097117;23;20013;-81
2022/06/21 14:14:28;;;;;;;7.00;5.43;;;;;;;;;;6097582;23;20026;-79
2022/06/21 14:16:56;;;;;;;6.75;6.07;;;;;;;;;;6097247;23;20089;-82
2022/06/21 14:19:41;;;;;;;6.78;5.25;;;;;;;;;;6097538;23;20391;-82
2022/06/21 14:22:19;;;;;;;8.80;5.82;;;;;;;;;;6097295;23;20009;-78
2022/06/21 14:24:51;;;;;;;6.78;6.07;;;;;;;;;;6097192;23;20018;-78
2022/06/21 14:27:37;;;;;;;9.25;6.38;;;;;;;;;;6097501;23;20002;-79
2022/06/21 14:30:10;;;;;;;8.45;6.15;;;;;;;;;;6097472;23;20030;-79
2022/06/21 14:32:54;;;;;;;8.47;4.90;;;;;;;;;;6097492;23;20013;-79
2022/06/21 14:35:28;;;;;;;6.57;5.30;;;;;;;;;;6097366;23;20052;-78
2022/06/21 14:37:59;;;;;;;8.60;5.60;;;;;;;;;;6071372;23;20010;-82
2022/06/21 14:40:30;;;;;;;8.15;5.68;;;;;;;;;;6097362;23;20003;-82
2022/06/21 14:43:00;;;;;;;6.35;5.30;;;;;;;;;;6097133;23;20008;-82
2022/06/21 14:45:44;;;;;;;6.85;6.15;;;;;;;;;;6097218;23;20007;-78
2022/06/21 14:48:19;;;;;;;6.90;5.80;;;;;;;;;;6097358;23;20434;-81
2022/06/21 14:50:48;;;;;;;6.78;6.10;;;;;;;;;;6097226;23;20482;-80
2022/06/21 14:53:33;;;;;;;7.07;5.63;;;;;;;;;;6097033;23;20487;-77
2022/06/21 14:56:08;;;;;;;7.88;5.82;;;;;;;;;;6097051;23;20032;-80
2022/06/21 14:58:53;;;;;;;8.38;6.47;;;;;;;;;;6097136;23;20074;-83
2022/06/21 15:01:38;;;;;;;6.90;6.15;;;;;;;;;;6097227;23;20009;-82
2022/06/21 15:04:04;;;;;;;6.88;6.28;;;;;;;;;;6097228;23;20008;-82
2022/06/21 15:06:32;;;;;;;7.35;5.75;;;;;;;;;;6096914;23;20466;-78
2022/06/21 15:09:01;;;;;;;9.68;6.47;;;;;;;;;;6097005;23;20010;-82
2022/06/21 15:14:13;;;;;;;6.80;6.07;;;;;;;;;;6097058;23;20497;-84
2022/06/21 15:16:57;;;;;;;10.05;6.50;;;;;;;;;;6096670;23;20367;-79
2022/06/21 15:22:19;;;;;;;8.45;6.70;;;;;;;;;;6096941;23;20022;-79
2022/06/21 15:24:45;;;;;;;7.10;6.35;;;;;;;;;;6096327;23;20013;-79
2022/06/21 15:27:13;;;;;;;8.93;5.95;;;;;;;;;;6096833;23;20061;-80
2022/06/21 15:29:52;;;;;;;6.63;6.03;;;;;;;;;;6096674;23;20022;-80
2022/06/21 15:32:20;;;;;;;9.07;7.20;;;;;;;;;;6096833;23;19995;-79
2022/06/21 15:34:46;;;;;;;6.90;6.30;;;;;;;;;;6096609;23;20422;-81
2022/06/21 15:37:18;;;;;;;7.43;6.10;;;;;;;;;;6094903;23;20446;-82
2022/06/21 15:39:48;;;;;;;8.45;5.88;;;;;;;;;;6096993;23;20006;-82
2022/06/21 15:42:17;;;;;;;7.10;6.50;;;;;;;;;;6096706;23;20002;-81